createdAt,value
2023-03-16T00:03:38.958Z,100952.25
2023-03-16T00:08:39.703Z,100950.50
2023-03-16T00:13:42.798Z,100952.91
2023-03-16T00:18:45.192Z,100945.94
2023-03-16T00:23:45.829Z,100950.91
2023-03-16T00:28:46.455Z,100950.94
2023-03-16T00:33:48.432Z,100954.19
2023-03-16T00:38:50.067Z,100955.81
2023-03-16T00:43:51.789Z,100956.59
2023-03-16T00:48:54.015Z,100959.97
2023-03-16T00:53:54.701Z,100963.25
2023-03-16T00:58:57.817Z,100967.50
2023-03-16T01:04:00.335Z,100967.47
2023-03-16T01:09:01.002Z,100967.22
2023-03-16T01:14:01.796Z,100973.94
2023-03-16T01:19:03.899Z,100990.72
2023-03-16T01:24:05.006Z,100997.72
2023-03-16T01:29:05.685Z,101003.63
2023-03-16T01:34:08.441Z,101005.19
2023-03-16T01:39:09.164Z,101011.84
2023-03-16T01:44:16.822Z,101006.81
2023-03-16T01:49:23.862Z,101011.84
2023-03-16T01:54:29.555Z,101013.44
2023-03-16T01:59:34.013Z,101016.59
2023-03-16T02:04:44.987Z,101010.56
2023-03-16T02:09:52.752Z,101008.84
2023-03-16T02:14:53.855Z,101003.66
2023-03-16T02:20:07.231Z,101007.75
2023-03-16T02:25:10.825Z,101001.63
2023-03-16T02:30:15.421Z,101014.34
2023-03-16T02:35:32.671Z,101007.50
2023-03-16T02:40:36.335Z,101015.03
2023-03-16T02:45:46.873Z,101028.06
2023-03-16T02:50:54.026Z,101017.00
2023-03-16T02:55:55.955Z,101023.59
2023-03-16T03:00:58.584Z,101029.56
2023-03-16T03:05:59.245Z,101023.44
2023-03-16T03:11:00.802Z,101022.56
2023-03-16T03:16:02.967Z,101026.94
2023-03-16T03:21:03.704Z,101030.06
2023-03-16T03:26:05.242Z,101028.56
2023-03-16T03:31:08.616Z,101036.16
2023-03-16T03:36:09.500Z,101038.56
2023-03-16T03:41:11.225Z,101045.31
2023-03-16T03:46:14.711Z,101045.03
2023-03-16T03:51:15.519Z,101050.31
2023-03-16T03:56:19.377Z,101050.25
2023-03-16T04:01:21.742Z,101053.63
2023-03-16T04:06:22.410Z,101051.13
2023-03-16T04:11:23.284Z,101051.81
2023-03-16T04:16:27.226Z,101047.28
2023-03-16T04:21:30.033Z,101047.31
2023-03-16T04:26:30.994Z,101055.88
2023-03-16T04:31:33.514Z,101049.00
2023-03-16T04:36:34.791Z,101051.31
2023-03-16T04:41:36.409Z,101048.75
2023-03-16T04:46:46.198Z,101047.88
2023-03-16T04:51:47.356Z,101047.88
2023-03-16T04:56:52.422Z,101044.44
2023-03-16T05:02:12.842Z,101045.16
2023-03-16T05:07:13.673Z,101039.88
2023-03-16T05:12:18.359Z,101040.03
2023-03-16T05:17:22.694Z,101047.59
2023-03-16T05:22:24.314Z,101051.25
2023-03-16T05:27:43.743Z,101046.13
2023-03-16T05:32:49.440Z,101064.94
2023-03-16T05:37:50.571Z,101063.25
2023-03-16T05:42:57.074Z,101067.72
2023-03-16T05:47:59.788Z,101057.53
2023-03-16T05:53:01.561Z,101069.81
2023-03-16T05:58:04.271Z,101066.47
2023-03-16T06:03:11.109Z,101075.19
2023-03-16T06:08:12.701Z,101082.38
2023-03-16T06:13:16.626Z,101083.72
2023-03-16T06:18:18.697Z,101081.59
2023-03-16T06:23:20.400Z,101076.22
2023-03-16T06:28:22.338Z,101082.50
2023-03-16T06:33:25.793Z,101088.03
2023-03-16T06:38:26.737Z,101087.19
2023-03-16T06:43:33.282Z,101084.44
2023-03-16T06:48:35.867Z,101093.09
2023-03-16T06:53:37.592Z,101079.81
2023-03-16T06:58:38.434Z,101094.16
2023-03-16T07:03:40.580Z,101087.03
2023-03-16T07:08:50.480Z,101098.84
2023-03-16T07:13:52.761Z,101092.44
2023-03-16T07:18:57.932Z,101098.16
2023-03-16T07:23:59.120Z,101103.41
2023-03-16T07:29:05.109Z,101101.56
2023-03-16T07:34:08.199Z,101113.28
2023-03-16T07:39:17.846Z,101105.06
2023-03-16T07:44:19.938Z,101092.03
2023-03-16T07:49:23.928Z,101093.41
2023-03-16T07:54:26.984Z,101087.75
2023-03-16T07:59:27.790Z,101094.56
2023-03-16T08:04:30.108Z,101099.97
2023-03-16T08:09:55.666Z,101096.25
2023-03-16T08:15:05.947Z,101097.53
2023-03-16T08:20:10.651Z,101090.34
2023-03-16T08:25:11.763Z,101100.94
2023-03-16T08:30:19.082Z,101098.03
2023-03-16T08:35:29.717Z,101099.19
2023-03-16T08:40:31.166Z,101094.41
2023-03-16T08:45:33.817Z,101110.28
2023-03-16T08:50:35.870Z,101087.56
2023-03-16T08:55:36.897Z,101093.00
2023-03-16T09:00:38.287Z,101096.97
2023-03-16T09:05:40.460Z,101095.69
2023-03-16T09:10:41.671Z,101090.94
2023-03-16T09:15:43.005Z,101096.91
2023-03-16T09:20:47.754Z,101093.06
2023-03-16T09:25:48.409Z,101107.16
2023-03-16T09:30:50.046Z,101104.59
2023-03-16T09:35:52.359Z,101087.84
2023-03-16T09:41:00.804Z,101096.66
2023-03-16T09:46:11.308Z,101091.75
2023-03-16T09:51:24.624Z,101083.31
2023-03-16T09:56:34.666Z,101083.53
2023-03-16T10:01:48.311Z,101078.59
2023-03-16T10:07:02.591Z,101073.56
2023-03-16T10:12:08.734Z,101072.16
2023-03-16T10:17:16.891Z,101072.09
2023-03-16T10:22:22.566Z,101073.06
2023-03-16T10:27:29.550Z,101068.03
2023-03-16T10:32:36.703Z,101068.97
2023-03-16T10:37:40.615Z,101064.75
2023-03-16T10:42:41.614Z,101065.59
2023-03-16T10:47:42.814Z,101064.06
2023-03-16T10:52:48.108Z,101057.97
2023-03-16T10:57:51.664Z,101054.63
2023-03-16T11:02:55.289Z,101040.91
2023-03-16T11:08:02.085Z,101038.44
2023-03-16T11:13:04.582Z,101029.81
2023-03-16T11:18:05.513Z,101017.69
2023-03-16T11:23:16.461Z,101010.84
2023-03-16T11:28:26.052Z,101001.41
2023-03-16T11:33:31.042Z,101004.00
2023-03-16T11:38:37.642Z,100997.09
2023-03-16T11:43:50.164Z,100995.41
2023-03-16T11:49:29.140Z,100979.81
2023-03-16T11:54:48.677Z,100978.97
2023-03-16T12:00:04.401Z,100973.78
2023-03-16T12:05:34.601Z,100964.28
2023-03-16T12:10:44.698Z,100966.03
2023-03-16T12:15:48.435Z,100951.31
2023-03-16T12:20:55.137Z,100953.88
2023-03-16T12:26:00.876Z,100953.00
2023-03-16T12:31:09.999Z,100948.69
2023-03-16T12:36:41.749Z,100938.25
2023-03-16T12:42:00.598Z,100938.25
2023-03-16T12:47:08.541Z,100920.91
2023-03-16T12:52:12.488Z,100930.38
2023-03-16T12:57:18.556Z,100920.81
2023-03-16T13:02:22.236Z,100918.97
2023-03-16T13:07:26.271Z,100915.50
2023-03-16T13:12:31.446Z,100912.91
2023-03-16T13:17:33.468Z,100907.75
2023-03-16T13:22:45.729Z,100901.66
2023-03-16T13:27:50.827Z,100887.72
2023-03-16T13:32:55.182Z,100873.81
2023-03-16T13:37:56.437Z,100877.34
2023-03-16T13:43:00.794Z,100878.19
2023-03-16T13:48:02.120Z,100875.53
2023-03-16T13:53:05.711Z,100880.69
2023-03-16T13:58:22.493Z,100873.00
2023-03-16T14:03:24.765Z,100862.53
2023-03-16T14:08:26.296Z,100848.53
2023-03-16T14:13:36.280Z,100852.16
2023-03-16T14:18:40.956Z,100836.50
2023-03-16T14:23:45.516Z,100849.50
2023-03-16T14:28:58.418Z,100839.06
2023-03-16T14:34:01.877Z,100836.50
2023-03-16T14:39:12.042Z,100834.72
2023-03-16T14:44:22.821Z,100841.72
2023-03-16T14:49:27.968Z,100832.16
2023-03-16T14:54:29.935Z,100834.84
2023-03-16T14:59:32.263Z,100840.94
2023-03-16T15:04:35.663Z,100826.16
2023-03-16T15:09:43.418Z,100825.41
2023-03-16T15:15:03.408Z,100825.47
2023-03-16T15:20:05.302Z,100812.47
2023-03-16T15:25:21.347Z,100819.50
2023-03-16T15:30:25.728Z,100813.44
2023-03-16T15:35:26.475Z,100813.53
2023-03-16T15:40:29.785Z,100816.97
2023-03-16T15:45:32.050Z,100835.22
2023-03-16T15:50:32.943Z,100817.09
2023-03-16T15:55:37.669Z,100798.94
2023-03-16T16:00:41.030Z,100791.16
2023-03-16T16:05:42.024Z,100790.34
2023-03-16T16:10:44.661Z,100795.53
2023-03-16T16:15:47.977Z,100808.50
2023-03-16T16:20:49.311Z,100807.69
2023-03-16T16:25:51.334Z,100809.44
2023-03-16T16:30:53.590Z,100821.47
2023-03-16T16:35:55.666Z,100829.22
2023-03-16T16:40:58.732Z,100834.31
2023-03-16T16:46:01.806Z,100830.03
2023-03-16T16:51:02.627Z,100828.31
2023-03-16T16:56:03.755Z,100830.75
2023-03-16T17:01:06.382Z,100816.81
2023-03-16T17:06:07.625Z,100810.81
2023-03-16T17:11:14.113Z,100811.53
2023-03-16T17:16:18.283Z,100815.72
2023-03-16T17:21:21.348Z,100809.47
2023-03-16T17:26:24.458Z,100820.59
2023-03-16T17:31:30.978Z,100813.63
2023-03-16T17:36:31.990Z,100816.06
2023-03-16T17:41:33.358Z,100821.22
2023-03-16T17:46:36.384Z,100826.47
2023-03-16T17:51:40.284Z,100809.16
2023-03-16T17:56:41.813Z,100798.75
2023-03-16T18:01:45.811Z,100808.31
2023-03-16T18:06:48.161Z,100803.03
2023-03-16T18:11:50.953Z,100802.19
2023-03-16T18:16:54.610Z,100805.63
2023-03-16T18:21:55.377Z,100782.38
2023-03-16T18:26:56.539Z,100779.75
2023-03-16T18:31:59.251Z,100769.53
2023-03-16T18:37:06.057Z,100766.09
2023-03-16T18:42:07.647Z,100763.50
2023-03-16T18:47:18.473Z,100777.34
2023-03-16T18:52:21.100Z,100767.09
2023-03-16T18:57:25.132Z,100757.59
2023-03-16T19:02:37.208Z,100750.72
2023-03-16T19:07:41.012Z,100753.31
2023-03-16T19:12:41.749Z,100753.38
2023-03-16T19:17:43.823Z,100755.91
2023-03-16T19:22:46.028Z,100757.59
2023-03-16T19:27:47.214Z,100749.00
2023-03-16T19:32:49.283Z,100750.66
2023-03-16T19:37:50.318Z,100738.50
2023-03-16T19:42:51.926Z,100732.41
2023-03-16T19:47:53.972Z,100733.19
2023-03-16T19:52:55.625Z,100732.25
2023-03-16T19:58:01.462Z,100738.28
2023-03-16T20:03:03.530Z,100740.72
2023-03-16T20:08:22.172Z,100742.34
2023-03-16T20:13:24.507Z,100739.59
2023-03-16T20:18:28.770Z,100747.38
2023-03-16T20:23:30.975Z,100736.25
2023-03-16T20:28:35.528Z,100734.59
2023-03-16T20:33:42.298Z,100744.06
2023-03-16T20:38:44.241Z,100735.53
2023-03-16T20:43:45.452Z,100727.72
2023-03-16T20:48:48.096Z,100729.34
2023-03-16T20:53:49.979Z,100720.66
2023-03-16T20:58:54.716Z,100719.69
2023-03-16T21:03:56.886Z,100715.31
2023-03-16T21:08:59.536Z,100710.22
2023-03-16T21:14:00.533Z,100715.41
2023-03-16T21:19:02.585Z,100698.25
2023-03-16T21:24:03.605Z,100693.03
2023-03-16T21:29:08.313Z,100697.22
2023-03-16T21:34:23.794Z,100692.00
2023-03-16T21:39:25.354Z,100685.19
2023-03-16T21:44:26.188Z,100686.00
2023-03-16T21:49:28.414Z,100698.72
2023-03-16T21:54:29.157Z,100702.19
2023-03-16T21:59:29.833Z,100701.22
2023-03-16T22:04:31.898Z,100695.88
2023-03-16T22:09:33.159Z,100687.28
2023-03-16T22:14:33.975Z,100675.34
2023-03-16T22:19:36.122Z,100666.63
2023-03-16T22:24:37.209Z,100664.06
2023-03-16T22:29:37.950Z,100652.88
2023-03-16T22:34:43.496Z,100645.22
2023-03-16T22:39:44.825Z,100635.66
2023-03-16T22:44:45.481Z,100623.63
2023-03-16T22:49:47.481Z,100621.84
2023-03-16T22:54:48.926Z,100625.22
2023-03-16T22:59:50.637Z,100629.53
2023-03-16T23:04:53.009Z,100617.63
2023-03-16T23:09:53.807Z,100616.00
2023-03-16T23:14:54.554Z,100623.72
2023-03-16T23:19:56.586Z,100613.53
2023-03-16T23:24:57.275Z,100617.06
2023-03-16T23:29:57.931Z,100617.91
2023-03-16T23:35:00.408Z,100616.19
2023-03-16T23:40:01.349Z,100617.94
2023-03-16T23:45:09.012Z,100610.19
2023-03-16T23:50:14.657Z,100603.38
2023-03-16T23:55:16.155Z,100593.03
